Time;durP1;ratioP1;P1;durP2;ratioP2;P2;SDS_P1;SDS_P2;PMS_P1;PMS_P2;Temp;Humidity;BMP_temperature;BMP_pressure;BME280_temperature;BME280_humidity;BME280_pressure;Samples;Min_cycle;Max_cycle;Signal;HPM_P1;HPM_P2
2023/04/23 00:01:15;;;;;;;3.20;2.35;;;22.30;73.80;;;;;;6254605;28;88314;-73
2023/04/23 00:04:22;;;;;;;2.40;2.20;;;22.20;73.70;;;;;;6254640;28;89530;-73
2023/04/23 00:07:24;;;;;;;2.55;2.15;;;22.20;73.70;;;;;;6253486;28;91368;-72
2023/04/23 00:10:27;;;;;;;2.55;2.30;;;22.20;73.70;;;;;;6251237;28;89312;-71
2023/04/23 00:13:30;;;;;;;2.30;2.10;;;22.20;73.80;;;;;;6254362;27;89430;-70
2023/04/23 00:16:32;;;;;;;2.35;2.13;;;22.20;73.70;;;;;;6254005;28;88971;-70
2023/04/23 00:19:36;;;;;;;2.40;2.20;;;22.20;73.80;;;;;;6253892;28;89414;-70
2023/04/23 00:22:38;;;;;;;2.45;2.25;;;22.20;74.70;;;;;;6249651;28;89119;-70
2023/04/23 00:25:41;;;;;;;2.60;2.30;;;22.20;73.70;;;;;;6258415;28;89078;-70
2023/04/23 00:28:43;;;;;;;4.15;2.47;;;22.20;73.70;;;;;;6252272;28;87228;-70
2023/04/23 00:31:45;;;;;;;2.88;2.30;;;22.20;73.70;;;;;;6258323;27;89216;-71
2023/04/23 00:34:48;;;;;;;2.83;2.20;;;22.20;73.80;;;;;;6258432;28;89502;-71
2023/04/23 00:37:50;;;;;;;2.97;2.20;;;22.20;73.80;;;;;;6254540;28;90428;-70
2023/04/23 00:40:52;;;;;;;3.17;2.28;;;22.20;73.80;;;;;;6257592;28;88951;-70
2023/04/23 00:43:56;;;;;;;2.88;2.60;;;22.20;73.90;;;;;;6258541;28;89432;-70
2023/04/23 00:46:59;;;;;;;2.63;2.42;;;22.20;74.00;;;;;;6258217;28;89254;-70
2023/04/23 00:50:03;;;;;;;2.58;2.30;;;22.20;74.00;;;;;;6259019;28;89835;-70
2023/04/23 00:53:05;;;;;;;2.97;2.13;;;22.20;74.00;;;;;;6246426;28;89163;-70
2023/04/23 00:56:08;;;;;;;2.70;2.50;;;22.20;74.00;;;;;;6256498;28;89004;-71
2023/04/23 00:59:11;;;;;;;2.95;2.28;;;22.20;74.20;;;;;;6246330;28;88423;-72
2023/04/23 01:02:13;;;;;;;3.85;2.80;;;22.20;74.40;;;;;;6250821;28;90278;-71
2023/04/23 01:05:19;;;;;;;3.33;2.40;;;22.20;74.30;;;;;;6256998;28;89373;-71
2023/04/23 01:08:23;;;;;;;4.57;2.53;;;22.20;74.20;;;;;;6246037;28;89992;-70
2023/04/23 01:11:25;;;;;;;3.08;2.40;;;22.20;74.20;;;;;;6253968;28;89104;-71
2023/04/23 01:14:28;;;;;;;2.58;2.38;;;22.20;74.00;;;;;;6252053;28;87956;-71
2023/04/23 01:17:30;;;;;;;3.13;2.50;;;22.20;74.10;;;;;;6253640;28;87991;-71
2023/04/23 01:20:35;;;;;;;2.85;2.50;;;22.20;74.00;;;;;;6248567;28;87198;-71
2023/04/23 01:23:38;;;;;;;3.95;2.28;;;22.20;74.10;;;;;;6238530;28;88390;-71
2023/04/23 01:26:40;;;;;;;2.42;2.22;;;22.20;74.00;;;;;;6248855;28;89187;-72
2023/04/23 01:29:45;;;;;;;3.03;2.10;;;22.20;74.00;;;;;;6253526;28;88295;-71
2023/04/23 01:32:48;;;;;;;4.28;2.60;;;22.20;74.00;;;;;;6256767;28;89145;-72
2023/04/23 01:35:50;;;;;;;3.08;2.78;;;22.20;74.90;;;;;;6244483;28;89107;-71
2023/04/23 01:38:54;;;;;;;2.60;2.40;;;22.20;74.00;;;;;;6249071;28;90040;-71
2023/04/23 01:41:57;;;;;;;2.65;2.45;;;22.20;74.00;;;;;;6256673;28;89203;-72
2023/04/23 01:44:59;;;;;;;2.58;2.38;;;22.20;74.00;;;;;;6255973;28;89112;-72
2023/04/23 01:48:01;;;;;;;3.05;2.60;;;22.20;74.00;;;;;;6254749;28;89135;-72
2023/04/23 01:51:03;;;;;;;3.00;2.30;;;22.20;73.90;;;;;;6240061;28;89100;-72
2023/04/23 01:54:07;;;;;;;3.53;2.40;;;22.20;74.40;;;;;;6245989;28;89095;-71
2023/04/23 01:57:10;;;;;;;3.28;2.28;;;22.20;73.90;;;;;;6252419;28;89180;-72
2023/04/23 02:00:14;;;;;;;2.95;2.28;;;22.20;73.90;;;;;;6257991;28;88354;-72
2023/04/23 02:03:16;;;;;;;2.40;2.20;;;22.20;74.00;;;;;;6255777;28;89390;-72
2023/04/23 02:06:18;;;;;;;3.35;2.42;;;22.20;73.90;;;;;;6254697;28;88139;-72
2023/04/23 02:09:21;;;;;;;2.58;2.38;;;22.20;73.90;;;;;;6250716;28;90073;-72
2023/04/23 02:12:23;;;;;;;2.40;2.20;;;22.20;74.00;;;;;;6256743;28;89358;-72
2023/04/23 02:15:25;;;;;;;2.90;2.20;;;22.20;74.10;;;;;;6243237;28;89007;-71
2023/04/23 02:18:27;;;;;;;6.32;2.30;;;22.10;74.00;;;;;;6255964;28;89129;-72
2023/04/23 02:21:29;;;;;;;4.53;2.78;;;22.10;74.00;;;;;;6257224;28;89089;-72
2023/04/23 02:24:33;;;;;;;2.35;2.03;;;22.20;74.00;;;;;;6244690;28;89279;-72
2023/04/23 02:27:35;;;;;;;2.53;2.13;;;22.20;74.10;;;;;;6244117;28;89064;-72
2023/04/23 02:30:39;;;;;;;3.00;2.28;;;22.10;74.00;;;;;;6244962;28;88907;-71
2023/04/23 02:33:42;;;;;;;2.78;2.15;;;22.20;74.00;;;;;;6255742;28;89070;-72
2023/04/23 02:36:44;;;;;;;2.50;2.30;;;22.20;74.10;;;;;;6247272;28;88827;-72
2023/04/23 02:39:48;;;;;;;2.58;2.38;;;22.20;74.00;;;;;;6250202;28;90127;-72
2023/04/23 02:42:50;;;;;;;3.28;2.35;;;22.10;74.00;;;;;;6252508;28;89240;-72
2023/04/23 02:45:52;;;;;;;2.30;2.00;;;22.10;74.00;;;;;;6255656;28;88919;-72
2023/04/23 02:48:54;;;;;;;3.72;2.40;;;22.10;74.00;;;;;;6251517;28;89045;-72
2023/04/23 02:51:56;;;;;;;3.05;2.17;;;22.10;74.00;;;;;;6255658;28;89203;-71
2023/04/23 02:55:00;;;;;;;2.63;2.30;;;22.10;74.00;;;;;;6254182;28;89165;-71
2023/04/23 02:58:02;;;;;;;2.80;2.50;;;22.10;74.00;;;;;;6241916;28;88808;-72
2023/04/23 03:01:05;;;;;;;3.13;2.65;;;22.20;74.00;;;;;;6244051;28;88691;-72
2023/04/23 03:04:07;;;;;;;2.60;2.40;;;22.10;74.00;;;;;;6254566;28;89199;-71
2023/04/23 03:07:09;;;;;;;4.28;2.63;;;22.10;73.80;;;;;;6241857;28;89116;-72
2023/04/23 03:10:12;;;;;;;2.72;2.53;;;22.10;73.70;;;;;;6232465;28;90307;-72
2023/04/23 03:13:14;;;;;;;3.03;2.60;;;22.10;73.70;;;;;;6250551;28;87939;-72
2023/04/23 03:16:16;;;;;;;2.45;2.25;;;22.10;73.80;;;;;;6255268;28;89097;-71
2023/04/23 03:19:18;;;;;;;2.60;2.40;;;22.10;73.80;;;;;;6254188;28;89017;-72
2023/04/23 03:22:20;;;;;;;3.25;2.60;;;22.10;73.80;;;;;;6253781;28;89086;-72
2023/04/23 03:25:24;;;;;;;3.45;2.78;;;22.10;73.80;;;;;;6254028;28;89365;-71
2023/04/23 03:28:26;;;;;;;3.10;2.80;;;22.10;73.80;;;;;;6243408;28;89280;-71
2023/04/23 03:31:28;;;;;;;3.25;2.95;;;22.10;73.90;;;;;;6255328;28;88384;-71
2023/04/23 03:34:30;;;;;;;3.03;2.67;;;22.10;73.90;;;;;;6251721;28;87956;-72
2023/04/23 03:37:32;;;;;;;3.75;2.67;;;22.10;73.90;;;;;;6254471;28;89103;-71
2023/04/23 03:40:36;;;;;;;3.22;2.70;;;22.10;74.00;;;;;;6250101;28;89962;-71
2023/04/23 03:43:38;;;;;;;3.30;2.83;;;22.10;73.90;;;;;;6255417;28;88058;-71
2023/04/23 03:46:40;;;;;;;3.30;3.00;;;22.10;73.90;;;;;;6255225;27;89195;-71
2023/04/23 03:49:41;;;;;;;3.38;2.70;;;22.10;74.00;;;;;;6259610;28;89101;-71
2023/04/23 03:52:44;;;;;;;3.22;2.92;;;22.10;74.00;;;;;;6260613;28;89565;-71
2023/04/23 03:55:47;;;;;;;4.10;3.33;;;22.10;74.00;;;;;;6258978;28;89503;-71
2023/04/23 03:58:49;;;;;;;3.80;2.92;;;22.10;74.00;;;;;;6246853;28;89060;-71
2023/04/23 04:01:51;;;;;;;3.33;3.03;;;22.10;74.00;;;;;;6257546;28;88403;-70
2023/04/23 04:04:53;;;;;;;4.88;3.45;;;22.10;74.00;;;;;;6256958;28;88323;-71
2023/04/23 04:07:56;;;;;;;3.55;3.25;;;22.10;74.10;;;;;;6254325;28;88928;-71
2023/04/23 04:11:00;;;;;;;3.65;3.30;;;22.10;74.00;;;;;;6250044;28;90115;-71
2023/04/23 04:14:02;;;;;;;5.00;3.95;;;22.10;74.00;;;;;;6251834;28;89243;-71
2023/04/23 04:17:04;;;;;;;3.58;3.28;;;22.10;74.10;;;;;;6259163;28;89260;-71
2023/04/23 04:20:07;;;;;;;4.07;3.60;;;22.00;74.10;;;;;;6259592;28;89111;-71
2023/04/23 04:23:09;;;;;;;3.97;3.67;;;22.10;74.10;;;;;;6258304;28;89167;-71
2023/04/23 04:26:14;;;;;;;4.00;3.70;;;22.10;74.20;;;;;;6257288;28;89161;-71
2023/04/23 04:29:16;;;;;;;3.97;3.58;;;22.10;74.20;;;;;;6256601;27;89308;-71
2023/04/23 04:32:18;;;;;;;4.30;3.95;;;22.10;74.20;;;;;;6254196;28;87377;-71
2023/04/23 04:35:20;;;;;;;4.00;3.70;;;22.10;74.20;;;;;;6247335;28;88880;-72
2023/04/23 04:38:22;;;;;;;4.72;3.95;;;22.00;74.20;;;;;;6257658;28;89007;-71
2023/04/23 04:41:26;;;;;;;4.70;4.30;;;22.00;74.20;;;;;;6248632;28;90077;-71
2023/04/23 04:44:29;;;;;;;4.40;4.00;;;22.00;74.20;;;;;;6258440;28;89011;-71
2023/04/23 04:47:31;;;;;;;4.53;4.13;;;22.00;74.20;;;;;;6248946;28;89150;-72
2023/04/23 04:50:33;;;;;;;5.28;4.50;;;22.10;74.30;;;;;;6255857;28;89113;-72
2023/04/23 04:53:35;;;;;;;4.70;4.30;;;22.00;74.30;;;;;;6245892;28;89043;-72
2023/04/23 04:56:39;;;;;;;4.63;4.22;;;22.00;74.40;;;;;;6255713;28;89069;-72
2023/04/23 04:59:41;;;;;;;5.60;4.97;;;22.10;74.40;;;;;;6247874;28;90326;-71
2023/04/23 05:02:43;;;;;;;4.88;4.38;;;22.00;74.30;;;;;;6257969;28;88112;-71
2023/04/23 05:05:47;;;;;;;4.72;4.22;;;22.00;74.30;;;;;;6247186;28;88015;-71
2023/04/23 05:08:49;;;;;;;4.70;4.30;;;22.10;74.40;;;;;;6246732;28;87829;-71
2023/04/23 05:11:52;;;;;;;5.25;4.45;;;22.10;74.40;;;;;;6255926;28;90023;-71
2023/04/23 05:14:54;;;;;;;4.78;4.35;;;22.00;74.40;;;;;;6249028;28;89018;-70
2023/04/23 05:17:56;;;;;;;4.97;4.47;;;22.10;74.40;;;;;;6241703;28;89105;-71
2023/04/23 05:20:58;;;;;;;5.25;4.75;;;22.10;74.40;;;;;;6257237;28;89100;-71
2023/04/23 05:24:01;;;;;;;5.30;4.80;;;22.00;74.40;;;;;;6257945;28;89676;-70
2023/04/23 05:27:05;;;;;;;5.72;5.13;;;22.00;74.40;;;;;;6255955;28;88033;-71
2023/04/23 05:30:09;;;;;;;4.72;4.10;;;22.00;74.40;;;;;;6256183;27;89296;-70
2023/04/23 05:33:11;;;;;;;5.13;4.63;;;22.00;74.40;;;;;;6251813;28;88334;-71
2023/04/23 05:36:13;;;;;;;5.00;4.60;;;22.00;74.50;;;;;;6250504;28;89069;-71
2023/04/23 05:39:15;;;;;;;5.13;4.63;;;22.10;74.50;;;;;;6248262;28;89040;-72
2023/04/23 05:42:18;;;;;;;5.38;4.88;;;22.00;74.50;;;;;;6255389;28;90301;-71
2023/04/23 05:45:21;;;;;;;5.20;4.70;;;22.00;74.50;;;;;;6258298;28;89796;-71
2023/04/23 05:48:23;;;;;;;5.68;4.82;;;22.00;74.50;;;;;;6257088;28;90726;-71
2023/04/23 05:51:27;;;;;;;5.47;4.80;;;22.00;74.50;;;;;;6255319;28;89129;-72
2023/04/23 05:54:30;;;;;;;4.90;4.50;;;22.00;74.50;;;;;;6255487;28;89276;-71
2023/04/23 05:57:33;;;;;;;5.20;4.70;;;22.00;74.50;;;;;;6253010;28;89557;-71
2023/04/23 06:00:35;;;;;;;5.35;4.95;;;22.10;74.50;;;;;;6257075;28;87994;-71
2023/04/23 06:03:40;;;;;;;4.88;4.47;;;22.10;74.50;;;;;;6257075;28;88402;-71
2023/04/23 06:06:42;;;;;;;4.80;4.40;;;22.00;74.50;;;;;;6249474;28;89416;-71
2023/04/23 06:09:44;;;;;;;5.35;4.85;;;22.00;74.50;;;;;;6244827;28;89285;-71
2023/04/23 06:12:48;;;;;;;4.85;4.45;;;22.10;74.60;;;;;;6255739;28;90061;-71
2023/04/23 06:15:50;;;;;;;5.25;4.75;;;22.00;74.50;;;;;;6256671;28;89110;-71
2023/04/23 06:18:52;;;;;;;5.30;4.80;;;22.00;74.60;;;;;;6254506;28;89518;-72
2023/04/23 06:21:55;;;;;;;5.45;4.93;;;22.00;74.60;;;;;;6254221;28;89113;-72
2023/04/23 06:24:57;;;;;;;5.25;4.75;;;22.10;74.70;;;;;;6256752;28;89074;-72
2023/04/23 06:28:00;;;;;;;5.05;4.65;;;22.10;74.70;;;;;;6254291;28;90079;-72
2023/04/23 06:31:04;;;;;;;5.50;4.45;;;22.10;74.70;;;;;;6254740;28;89126;-71
2023/04/23 06:34:06;;;;;;;5.43;4.93;;;22.10;74.70;;;;;;6244862;28;88837;-72
2023/04/23 06:37:08;;;;;;;5.15;4.68;;;22.10;74.70;;;;;;6242421;28;88985;-71
2023/04/23 06:40:11;;;;;;;5.40;4.90;;;22.10;74.80;;;;;;6256956;28;89063;-71
2023/04/23 06:43:14;;;;;;;5.30;4.80;;;22.10;74.80;;;;;;6247202;27;89632;-70
2023/04/23 06:46:16;;;;;;;5.20;4.70;;;22.20;74.90;;;;;;6251084;27;90289;-72
2023/04/23 06:49:18;;;;;;;4.63;4.22;;;22.10;74.90;;;;;;6255091;27;89438;-71
2023/04/23 06:52:20;;;;;;;5.75;4.70;;;22.10;74.90;;;;;;6255004;27;87971;-72
2023/04/23 06:55:24;;;;;;;5.35;4.85;;;22.10;74.90;;;;;;6254945;27;89336;-71
2023/04/23 06:58:31;;;;;;;5.18;4.70;;;22.10;74.90;;;;;;6252069;28;89241;-70
2023/04/23 07:01:33;;;;;;;5.30;4.80;;;22.10;75.00;;;;;;6249272;27;89069;-71
2023/04/23 07:04:35;;;;;;;4.82;4.43;;;22.10;75.00;;;;;;6255418;27;88351;-71
2023/04/23 07:07:37;;;;;;;5.07;4.60;;;22.20;75.10;;;;;;6252837;27;88461;-71
2023/04/23 07:10:39;;;;;;;5.25;4.85;;;22.10;75.00;;;;;;6250504;27;89106;-71
2023/04/23 07:13:42;;;;;;;5.07;4.65;;;22.10;75.20;;;;;;6254143;27;90009;-71
2023/04/23 07:16:44;;;;;;;4.80;4.40;;;22.20;75.40;;;;;;6255846;27;88997;-70
2023/04/23 07:19:46;;;;;;;4.97;4.57;;;22.20;75.30;;;;;;6255245;28;89090;-72
2023/04/23 07:22:48;;;;;;;5.72;5.20;;;22.20;75.30;;;;;;6254475;27;88342;-72
2023/04/23 07:25:50;;;;;;;5.70;4.80;;;22.20;75.40;;;;;;6256405;28;89169;-72
2023/04/23 07:28:54;;;;;;;6.32;4.90;;;22.20;75.40;;;;;;6255581;27;89332;-70
2023/04/23 07:31:56;;;;;;;5.70;5.10;;;22.20;75.40;;;;;;6270379;27;89011;-72
2023/04/23 07:34:58;;;;;;;7.00;5.10;;;22.20;75.50;;;;;;6250799;27;88664;-72
2023/04/23 07:38:00;;;;;;;5.32;4.82;;;22.10;75.90;;;;;;6255398;28;89059;-72
2023/04/23 07:41:02;;;;;;;6.03;4.60;;;22.20;76.30;;;;;;6245580;27;88867;-71
2023/04/23 07:44:06;;;;;;;6.82;4.90;;;22.20;76.60;;;;;;6254740;27;90048;-71
2023/04/23 07:47:08;;;;;;;7.78;5.22;;;22.20;76.70;;;;;;6254722;27;89064;-71
2023/04/23 07:50:10;;;;;;;5.80;5.20;;;22.20;76.90;;;;;;6255018;27;89382;-72
2023/04/23 07:53:12;;;;;;;5.90;5.30;;;22.20;77.20;;;;;;6256927;27;87992;-74
2023/04/23 07:56:14;;;;;;;5.85;5.05;;;22.30;78.60;;;;;;6256556;27;89087;-74
2023/04/23 07:59:18;;;;;;;5.90;5.40;;;22.30;78.60;;;;;;6244459;27;89135;-73
2023/04/23 08:02:22;;;;;;;7.18;5.40;;;22.30;78.30;;;;;;6252239;27;89097;-75
2023/04/23 08:05:25;;;;;;;6.90;5.18;;;22.20;77.70;;;;;;6264410;27;88359;-73
2023/04/23 08:08:27;;;;;;;7.78;5.00;;;22.20;77.40;;;;;;6260400;27;89069;-74
2023/04/23 08:11:29;;;;;;;7.03;5.55;;;22.20;77.20;;;;;;6269518;27;87964;-73
2023/04/23 08:14:33;;;;;;;7.55;5.40;;;22.20;77.20;;;;;;6259824;27;90129;-73
2023/04/23 08:17:35;;;;;;;6.10;5.50;;;22.30;77.10;;;;;;6263483;27;90456;-72
2023/04/23 08:20:37;;;;;;;6.00;4.95;;;22.20;77.10;;;;;;6239486;27;89078;-73
2023/04/23 08:23:39;;;;;;;6.07;5.10;;;22.20;77.10;;;;;;6237406;27;89451;-74
2023/04/23 08:26:41;;;;;;;5.72;4.90;;;22.20;77.20;;;;;;6249673;27;89802;-74
2023/04/23 08:29:44;;;;;;;5.70;5.10;;;22.20;77.20;;;;;;6247944;27;89519;-73
2023/04/23 08:32:50;;;;;;;5.28;4.75;;;22.20;77.20;;;;;;6252150;27;89414;-75
2023/04/23 08:35:52;;;;;;;5.70;5.00;;;22.20;77.10;;;;;;6258790;27;88349;-74
2023/04/23 08:38:54;;;;;;;5.78;5.10;;;22.20;77.20;;;;;;6254653;27;89116;-74
2023/04/23 08:41:57;;;;;;;6.00;5.40;;;22.20;77.20;;;;;;6266727;27;89104;-74
2023/04/23 08:45:02;;;;;;;5.78;5.20;;;22.20;77.10;;;;;;6276190;27;89925;-75
2023/04/23 08:48:05;;;;;;;5.82;5.22;;;22.20;77.20;;;;;;6269073;27;89117;-75
2023/04/23 08:51:10;;;;;;;6.00;5.40;;;22.20;77.30;;;;;;6268612;27;89076;-74
2023/04/23 08:54:18;;;;;;;5.95;5.35;;;22.20;77.20;;;;;;6254810;27;89063;-72
2023/04/23 08:57:20;;;;;;;6.05;5.25;;;22.20;77.20;;;;;;6251642;28;89113;-74
2023/04/23 09:00:24;;;;;;;5.95;5.05;;;22.20;78.20;;;;;;6258063;28;89571;-76
2023/04/23 09:03:27;;;;;;;5.78;5.18;;;22.30;78.30;;;;;;6258429;28;89039;-72
2023/04/23 09:06:31;;;;;;;5.75;5.25;;;22.30;78.30;;;;;;6258981;28;87743;-72
2023/04/23 09:09:34;;;;;;;6.18;5.38;;;22.30;80.10;;;;;;6245363;28;89114;-73
2023/04/23 09:12:38;;;;;;;40.60;32.10;;;22.40;79.20;;;;;;6256542;28;89078;-66
2023/04/23 09:15:42;;;;;;;973.95;814.67;;;22.40;80.50;;;;;;6255891;28;90129;-69
2023/04/23 09:18:45;;;;;;;769.63;588.42;;;22.50;85.90;;;;;;6256494;28;89111;-73
2023/04/23 09:21:47;;;;;;;425.42;320.83;;;22.60;84.10;;;;;;6256850;28;88334;-73
2023/04/23 09:24:54;;;;;;;317.50;235.65;;;22.70;80.00;;;;;;6256857;28;89210;-71
2023/04/23 09:28:00;;;;;;;242.55;174.18;;;22.70;78.70;;;;;;6246554;28;87933;-72
2023/04/23 09:31:05;;;;;;;156.95;110.72;;;22.80;78.10;;;;;;6256150;28;89114;-71
2023/04/23 09:34:07;;;;;;;127.97;94.32;;;22.80;77.40;;;;;;6251855;28;88041;-71
2023/04/23 09:37:09;;;;;;;122.75;85.35;;;22.80;77.50;;;;;;6256716;28;88359;-69
2023/04/23 09:40:14;;;;;;;105.97;75.25;;;22.70;77.90;;;;;;6251901;28;89279;-70
2023/04/23 09:43:16;;;;;;;96.80;69.05;;;22.70;79.60;;;;;;6256716;28;89103;-70
2023/04/23 09:46:32;;;;;;;88.57;61.55;;;22.70;80.10;;;;;;6256179;27;90353;-69
2023/04/23 09:49:44;;;;;;;75.45;53.08;;;22.70;79.30;;;;;;6254850;28;89050;-71
2023/04/23 09:52:54;;;;;;;74.55;47.88;;;22.60;78.80;;;;;;6257036;28;89087;-68
2023/04/23 09:56:07;;;;;;;69.43;42.67;;;22.60;78.90;;;;;;6246432;28;88152;-71
2023/04/23 09:59:23;;;;;;;53.65;35.50;;;22.60;79.40;;;;;;6252967;27;89694;-70
2023/04/23 10:02:32;;;;;;;52.72;30.95;;;22.50;79.30;;;;;;6243674;27;89080;-70
2023/04/23 10:05:39;;;;;;;45.95;27.77;;;22.50;79.60;;;;;;6250004;28;87120;-68
2023/04/23 10:08:42;;;;;;;43.38;24.02;;;22.50;79.30;;;;;;6252788;28;88278;-70
2023/04/23 10:11:45;;;;;;;31.10;20.65;;;22.50;78.50;;;;;;6255566;28;89152;-68
2023/04/23 10:14:52;;;;;;;27.02;17.60;;;22.50;78.40;;;;;;6254687;28;89129;-67
2023/04/23 10:17:56;;;;;;;19.10;13.43;;;22.40;78.10;;;;;;6255808;28;88958;-68
2023/04/23 10:20:58;;;;;;;13.00;9.30;;;22.40;78.20;;;;;;6250499;28;89807;-68
2023/04/23 10:24:02;;;;;;;17.08;8.30;;;22.40;77.30;;;;;;6253553;28;89352;-68
2023/04/23 10:27:05;;;;;;;19.23;7.55;;;22.40;76.20;;;;;;6254751;28;89119;-74
2023/04/23 10:30:09;;;;;;;28.25;10.00;;;22.30;76.40;;;;;;6247902;27;89379;-72
2023/04/23 10:33:13;;;;;;;35.25;13.02;;;22.30;77.10;;;;;;6245135;27;89623;-73
2023/04/23 10:36:16;;;;;;;32.65;11.10;;;22.30;77.90;;;;;;6255406;28;89328;-75
2023/04/23 10:39:20;;;;;;;29.27;11.38;;;22.20;78.90;;;;;;6254824;28;88790;-73
2023/04/23 10:42:23;;;;;;;14.98;7.55;;;22.20;79.00;;;;;;6254280;28;89136;-73
2023/04/23 10:45:25;;;;;;;14.98;7.45;;;22.20;78.40;;;;;;6256337;28;89011;-74
2023/04/23 10:48:29;;;;;;;12.30;6.80;;;22.20;78.00;;;;;;6253056;28;90140;-72
2023/04/23 10:51:33;;;;;;;14.75;6.40;;;22.20;77.80;;;;;;6256759;28;89047;-73
2023/04/23 10:54:36;;;;;;;13.00;6.53;;;22.20;78.30;;;;;;6256877;28;89239;-74
2023/04/23 10:57:58;;;;;;;14.00;6.50;;;22.20;78.50;;;;;;6243827;28;88072;-74
2023/04/23 11:01:05;;;;;;;13.63;6.55;;;22.20;78.60;;;;;;6244451;28;89426;-73
2023/04/23 11:04:22;;;;;;;9.45;5.43;;;22.20;78.80;;;;;;6243892;28;88950;-73
2023/04/23 11:07:29;;;;;;;10.65;5.47;;;22.30;78.80;;;;;;6244922;28;89088;-74
2023/04/23 11:10:32;;;;;;;13.60;6.07;;;22.30;78.80;;;;;;6243841;27;88322;-74
2023/04/23 11:13:34;;;;;;;12.88;5.40;;;22.30;79.00;;;;;;6243694;27;90761;-73
2023/04/23 11:16:37;;;;;;;11.45;5.57;;;22.30;78.80;;;;;;6246839;27;88137;-73
2023/04/23 11:19:41;;;;;;;9.10;5.60;;;22.40;78.80;;;;;;6243303;28;89997;-74
2023/04/23 11:22:44;;;;;;;10.95;5.50;;;22.30;78.80;;;;;;6250021;28;89334;-73
2023/04/23 11:25:47;;;;;;;8.30;5.18;;;22.40;79.00;;;;;;6254574;28;87939;-73
2023/04/23 11:28:51;;;;;;;9.07;5.28;;;22.40;79.10;;;;;;6250694;28;89064;-74
2023/04/23 11:31:54;;;;;;;7.70;5.03;;;22.40;79.10;;;;;;6254598;27;89076;-73
2023/04/23 11:34:59;;;;;;;8.60;5.18;;;22.40;79.10;;;;;;6252159;28;89173;-73
2023/04/23 11:38:08;;;;;;;9.45;5.18;;;22.40;78.90;;;;;;6251360;28;87994;-73
2023/04/23 11:41:11;;;;;;;7.40;4.93;;;22.40;78.90;;;;;;6250062;28;88303;-73
2023/04/23 11:44:13;;;;;;;8.35;4.97;;;22.40;79.00;;;;;;6246548;28;87946;-73
2023/04/23 11:47:17;;;;;;;9.23;5.38;;;22.40;79.30;;;;;;6247090;28;88903;-72
2023/04/23 11:50:21;;;;;;;8.90;4.80;;;22.50;79.70;;;;;;6248039;28;90511;-72
2023/04/23 11:53:23;;;;;;;9.95;5.30;;;22.40;80.90;;;;;;6250149;28;89063;-72
2023/04/23 11:56:30;;;;;;;10.95;5.13;;;22.50;80.00;;;;;;6242885;28;89109;-73
2023/04/23 11:59:32;;;;;;;10.30;5.45;;;22.50;80.10;;;;;;6239262;28;89028;-71
2023/04/23 12:02:34;;;;;;;10.25;5.45;;;22.50;80.30;;;;;;6251637;28;89119;-73
2023/04/23 12:05:42;;;;;;;8.80;4.70;;;22.50;80.50;;;;;;6245474;28;90009;-72
2023/04/23 12:08:47;;;;;;;11.05;5.07;;;22.40;80.50;;;;;;6250045;28;89305;-72
2023/04/23 12:11:50;;;;;;;12.65;4.95;;;22.50;80.60;;;;;;6258239;28;88331;-72
2023/04/23 12:15:03;;;;;;;10.48;4.90;;;22.50;80.70;;;;;;6252217;28;89184;-72
2023/04/23 12:18:12;;;;;;;7.88;4.53;;;22.50;80.80;;;;;;6256097;28;89127;-73
2023/04/23 12:21:17;;;;;;;9.27;4.63;;;22.50;80.70;;;;;;6253568;28;90071;-73
2023/04/23 12:24:19;;;;;;;14.35;4.93;;;22.50;80.80;;;;;;6254690;28;87988;-72
2023/04/23 12:27:22;;;;;;;7.90;4.70;;;22.50;80.80;;;;;;6254759;28;89272;-72
2023/04/23 12:30:28;;;;;;;12.02;5.18;;;22.50;80.80;;;;;;6247243;27;88112;-73
2023/04/23 12:33:31;;;;;;;11.55;4.78;;;22.50;80.90;;;;;;6242419;28;88196;-74
2023/04/23 12:36:36;;;;;;;8.30;4.57;;;22.50;81.00;;;;;;6255924;28;89020;-74
2023/04/23 12:39:38;;;;;;;7.78;4.50;;;22.50;81.00;;;;;;6248495;28;89085;-77
2023/04/23 12:42:40;;;;;;;7.93;4.47;;;22.50;81.30;;;;;;6251883;28;88348;-73
2023/04/23 12:45:42;;;;;;;8.88;4.80;;;22.50;81.90;;;;;;6255680;28;87981;-73
2023/04/23 12:48:44;;;;;;;8.25;4.82;;;22.50;82.20;;;;;;6245059;28;89066;-74
2023/04/23 12:51:47;;;;;;;8.73;4.32;;;22.50;82.10;;;;;;6258088;28;90277;-73
2023/04/23 12:54:51;;;;;;;8.50;4.38;;;22.60;82.20;;;;;;6256431;28;89361;-74
2023/04/23 12:57:53;;;;;;;9.27;5.07;;;22.50;82.00;;;;;;6245791;28;89086;-73
2023/04/23 13:00:55;;;;;;;7.22;4.35;;;22.50;81.90;;;;;;6259106;28;87981;-73
2023/04/23 13:03:57;;;;;;;10.38;4.85;;;22.60;82.10;;;;;;6258589;28;89120;-74
2023/04/23 13:07:01;;;;;;;6.03;4.50;;;22.50;81.90;;;;;;6258399;28;89018;-74
2023/04/23 13:10:04;;;;;;;7.30;4.28;;;22.50;81.80;;;;;;6257553;28;89165;-74
2023/04/23 13:13:06;;;;;;;10.15;4.75;;;22.50;82.20;;;;;;6256950;28;88388;-73
2023/04/23 13:16:08;;;;;;;7.60;4.85;;;22.60;82.40;;;;;;6256418;28;89097;-74
2023/04/23 13:19:11;;;;;;;10.18;4.90;;;22.60;82.70;;;;;;6258075;28;90470;-73
2023/04/23 13:22:15;;;;;;;6.25;4.82;;;22.50;82.50;;;;;;6255972;28;89943;-74
2023/04/23 13:25:17;;;;;;;8.65;4.25;;;22.50;82.50;;;;;;6258205;28;89128;-75
2023/04/23 13:28:19;;;;;;;7.72;4.80;;;22.60;82.20;;;;;;6245836;28;91983;-74
2023/04/23 13:31:21;;;;;;;9.38;4.55;;;22.60;82.10;;;;;;6247752;28;89083;-73
2023/04/23 13:34:23;;;;;;;7.95;4.68;;;22.60;82.10;;;;;;6245896;28;89079;-73
2023/04/23 13:37:27;;;;;;;8.32;4.60;;;22.60;82.00;;;;;;6257933;28;89276;-73
2023/04/23 13:40:29;;;;;;;7.55;4.35;;;22.50;81.90;;;;;;6257328;28;89372;-74
2023/04/23 13:43:31;;;;;;;5.50;4.13;;;22.50;81.80;;;;;;6258895;28;88402;-74
2023/04/23 13:46:33;;;;;;;8.27;4.55;;;22.50;81.80;;;;;;6257783;28;89459;-74
2023/04/23 13:49:35;;;;;;;8.25;4.20;;;22.50;81.70;;;;;;6244271;28;89089;-74
2023/04/23 13:52:39;;;;;;;6.45;4.30;;;22.50;81.60;;;;;;6256397;28;90373;-74
2023/04/23 13:55:41;;;;;;;7.45;4.30;;;22.50;81.60;;;;;;6257587;28;87959;-74
2023/04/23 13:58:45;;;;;;;5.93;4.28;;;22.50;81.50;;;;;;6257077;28;89305;-74
2023/04/23 14:01:48;;;;;;;6.10;4.00;;;22.50;81.30;;;;;;6257277;28;89405;-74
2023/04/23 14:04:50;;;;;;;5.75;4.10;;;22.50;81.20;;;;;;6257411;27;89107;-74
2023/04/23 14:07:53;;;;;;;6.50;4.13;;;22.50;81.10;;;;;;6257526;28;88022;-74
2023/04/23 14:10:56;;;;;;;5.72;4.00;;;22.50;81.00;;;;;;6256453;28;89283;-75
2023/04/23 14:13:59;;;;;;;5.45;3.97;;;22.50;81.00;;;;;;6256884;28;88319;-75
2023/04/23 14:17:01;;;;;;;7.32;3.90;;;22.50;81.00;;;;;;6256821;28;89281;-75
2023/04/23 14:20:05;;;;;;;6.53;3.80;;;22.50;80.90;;;;;;6256424;28;89293;-74
2023/04/23 14:23:43;;;;;;;6.75;4.03;;;22.50;80.90;;;;;;6255819;28;90244;-74
2023/04/23 14:26:47;;;;;;;5.75;4.25;;;22.50;80.90;;;;;;6254855;28;89150;-75
2023/04/23 14:29:52;;;;;;;6.63;4.00;;;22.50;80.80;;;;;;6245812;28;89049;-75
2023/04/23 14:32:55;;;;;;;5.20;3.72;;;22.50;80.80;;;;;;6251456;27;88696;-74
2023/04/23 14:35:57;;;;;;;4.18;3.60;;;22.50;80.80;;;;;;6254613;28;87967;-74
2023/04/23 14:39:03;;;;;;;5.18;3.85;;;22.50;80.70;;;;;;6256362;28;89141;-73
2023/04/23 14:42:06;;;;;;;5.32;4.00;;;22.50;80.60;;;;;;6250930;27;89292;-74
2023/04/23 14:45:09;;;;;;;5.43;3.90;;;22.50;80.60;;;;;;6255739;28;88615;-74
2023/04/23 14:48:11;;;;;;;6.35;4.07;;;22.50;80.60;;;;;;6255588;28;89431;-75
2023/04/23 14:51:13;;;;;;;4.45;3.63;;;22.50;80.50;;;;;;6256198;28;87986;-75
2023/04/23 14:54:16;;;;;;;5.18;3.80;;;22.50;80.40;;;;;;6256274;28;90316;-75
2023/04/23 14:57:18;;;;;;;4.13;3.60;;;22.50;80.40;;;;;;6245815;28;88318;-74
2023/04/23 15:00:21;;;;;;;4.30;3.60;;;22.50;80.30;;;;;;6253555;28;89057;-74
2023/04/23 15:03:23;;;;;;;4.10;3.40;;;22.50;80.30;;;;;;6250201;28;87948;-75
2023/04/23 15:06:25;;;;;;;6.05;3.90;;;22.50;80.30;;;;;;6249163;28;89116;-75
2023/04/23 15:09:28;;;;;;;4.53;3.47;;;22.50;80.30;;;;;;6256496;28;89215;-76
2023/04/23 15:12:49;;;;;;;4.55;3.78;;;22.40;80.20;;;;;;6253510;28;89137;-75
2023/04/23 15:15:58;;;;;;;4.47;3.30;;;22.50;80.30;;;;;;6242254;28;88933;-74
2023/04/23 15:19:01;;;;;;;4.05;3.65;;;22.50;80.20;;;;;;6255037;28;89094;-75
2023/04/23 15:22:04;;;;;;;4.63;3.83;;;22.50;80.10;;;;;;6251871;28;89098;-74
2023/04/23 15:25:08;;;;;;;5.13;3.70;;;22.50;80.10;;;;;;6252827;28;89977;-74
2023/04/23 15:28:10;;;;;;;5.22;3.83;;;22.50;80.10;;;;;;6241332;27;89117;-74
2023/04/23 15:31:12;;;;;;;4.60;3.58;;;22.50;80.10;;;;;;6246252;27;89042;-71
2023/04/23 15:34:14;;;;;;;3.72;3.30;;;22.50;80.70;;;;;;6250110;28;87956;-72
2023/04/23 15:37:17;;;;;;;3.88;3.50;;;22.50;80.60;;;;;;6250411;28;89100;-71
2023/04/23 15:40:21;;;;;;;5.13;3.80;;;22.50;81.00;;;;;;6244710;28;89183;-72
2023/04/23 15:43:23;;;;;;;4.78;3.90;;;22.50;80.80;;;;;;6251937;27;89193;-72
2023/04/23 15:46:25;;;;;;;4.30;3.88;;;22.50;80.60;;;;;;6252215;27;88314;-72
2023/04/23 15:49:27;;;;;;;4.75;3.63;;;22.50;80.50;;;;;;6246481;27;89141;-71